Volcano, Hawaii
Current Conditions -  °F | °C
As of 6:53 AM on Thursday 30 Oct 2014 (Local Time) from PHTO Reporting Station
Scattered Clouds Scattered Clouds  
Wind Chill: 71°   Ceiling: Unl
Heat Index: 71°   Visibility: 10mi
Dew Point: 67°   Wind: 7mph
Humidity: 87%   Direction: 250°WSW
Pressure: 30.07"   Gusts: NA
Location:  19.42°N, 155.22°W
Report Text: PHTO 301653Z 25006KT 10SM SCT029 22/19 A3007 RMK AO2 SLP181 T02170194 $
Loading
Personal Weather Stations






























Interactive Weather Map
Tropical Storm Tracking
New forecast layout! Learn more

10-Day Weather Forecast

Advertisements
Track Severe Weather on mobile